sensor_id;sensor_type;location;lat;lon;timestamp;P1;durP1;ratioP1;P2;durP2;ratioP2
76626;SDS011;65519;53.230;10.390;2023-12-20T00:00:53;10.00;;;2.30;;
76626;SDS011;65519;53.230;10.390;2023-12-20T00:03:19;7.50;;;2.20;;
76626;SDS011;65519;53.230;10.390;2023-12-20T00:05:45;12.25;;;2.90;;
76626;SDS011;65519;53.230;10.390;2023-12-20T00:08:11;4.80;;;1.83;;
76626;SDS011;65519;53.230;10.390;2023-12-20T00:10:36;4.78;;;2.30;;
76626;SDS011;65519;53.230;10.390;2023-12-20T00:13:01;11.90;;;2.17;;
76626;SDS011;65519;53.230;10.390;2023-12-20T00:15:27;8.68;;;2.25;;
76626;SDS011;65519;53.230;10.390;2023-12-20T00:17:52;7.95;;;3.20;;
76626;SDS011;65519;53.230;10.390;2023-12-20T00:20:18;14.27;;;2.47;;
76626;SDS011;65519;53.230;10.390;2023-12-20T00:22:43;9.82;;;2.05;;
76626;SDS011;65519;53.230;10.390;2023-12-20T00:25:09;7.40;;;1.90;;
76626;SDS011;65519;53.230;10.390;2023-12-20T00:27:34;6.50;;;2.10;;
76626;SDS011;65519;53.230;10.390;2023-12-20T00:30:00;7.53;;;2.35;;
76626;SDS011;65519;53.230;10.390;2023-12-20T00:32:25;6.25;;;1.85;;
76626;SDS011;65519;53.230;10.390;2023-12-20T00:34:51;11.73;;;2.85;;
76626;SDS011;65519;53.230;10.390;2023-12-20T00:37:16;14.25;;;2.42;;
76626;SDS011;65519;53.230;10.390;2023-12-20T00:39:41;6.18;;;1.77;;
76626;SDS011;65519;53.230;10.390;2023-12-20T00:42:07;9.18;;;2.22;;
76626;SDS011;65519;53.230;10.390;2023-12-20T00:44:32;11.23;;;1.98;;
76626;SDS011;65519;53.230;10.390;2023-12-20T00:46:58;10.85;;;2.30;;
76626;SDS011;65519;53.230;10.390;2023-12-20T00:49:23;13.80;;;3.28;;
76626;SDS011;65519;53.230;10.390;2023-12-20T00:51:49;14.40;;;2.00;;
76626;SDS011;65519;53.230;10.390;2023-12-20T00:54:15;12.82;;;2.22;;
76626;SDS011;65519;53.230;10.390;2023-12-20T00:56:41;6.03;;;2.08;;
76626;SDS011;65519;53.230;10.390;2023-12-20T00:59:06;12.40;;;2.58;;
76626;SDS011;65519;53.230;10.390;2023-12-20T01:01:32;4.05;;;1.70;;
76626;SDS011;65519;53.230;10.390;2023-12-20T01:03:58;9.20;;;2.13;;
76626;SDS011;65519;53.230;10.390;2023-12-20T01:06:24;6.65;;;2.05;;
76626;SDS011;65519;53.230;10.390;2023-12-20T01:08:49;9.73;;;2.08;;
76626;SDS011;65519;53.230;10.390;2023-12-20T01:11:15;8.80;;;2.60;;
76626;SDS011;65519;53.230;10.390;2023-12-20T01:13:40;6.65;;;1.92;;
76626;SDS011;65519;53.230;10.390;2023-12-20T01:16:06;9.93;;;2.13;;
76626;SDS011;65519;53.230;10.390;2023-12-20T01:18:31;6.57;;;1.85;;
76626;SDS011;65519;53.230;10.390;2023-12-20T01:21:01;8.60;;;2.22;;
76626;SDS011;65519;53.230;10.390;2023-12-20T01:23:28;6.68;;;2.53;;
76626;SDS011;65519;53.230;10.390;2023-12-20T01:25:53;11.32;;;2.38;;
76626;SDS011;65519;53.230;10.390;2023-12-20T01:28:19;14.50;;;2.70;;
76626;SDS011;65519;53.230;10.390;2023-12-20T01:30:44;6.22;;;2.17;;
76626;SDS011;65519;53.230;10.390;2023-12-20T01:33:10;7.72;;;2.33;;
76626;SDS011;65519;53.230;10.390;2023-12-20T01:35:35;5.93;;;1.98;;
76626;SDS011;65519;53.230;10.390;2023-12-20T01:38:01;7.25;;;2.38;;
76626;SDS011;65519;53.230;10.390;2023-12-20T01:40:27;15.88;;;2.53;;
76626;SDS011;65519;53.230;10.390;2023-12-20T01:43:02;6.75;;;2.13;;
76626;SDS011;65519;53.230;10.390;2023-12-20T01:45:32;8.18;;;2.40;;
76626;SDS011;65519;53.230;10.390;2023-12-20T01:47:57;10.20;;;2.70;;
76626;SDS011;65519;53.230;10.390;2023-12-20T01:50:24;9.80;;;3.10;;
76626;SDS011;65519;53.230;10.390;2023-12-20T01:52:50;9.55;;;2.40;;
76626;SDS011;65519;53.230;10.390;2023-12-20T01:55:18;7.10;;;2.58;;
76626;SDS011;65519;53.230;10.390;2023-12-20T01:57:44;11.73;;;2.38;;
76626;SDS011;65519;53.230;10.390;2023-12-20T02:00:12;12.43;;;2.67;;
76626;SDS011;65519;53.230;10.390;2023-12-20T02:02:39;7.18;;;2.38;;
76626;SDS011;65519;53.230;10.390;2023-12-20T02:05:09;13.00;;;2.42;;
76626;SDS011;65519;53.230;10.390;2023-12-20T02:07:34;6.32;;;2.20;;
76626;SDS011;65519;53.230;10.390;2023-12-20T02:10:03;12.23;;;2.67;;
76626;SDS011;65519;53.230;10.390;2023-12-20T02:12:29;6.97;;;2.00;;
76626;SDS011;65519;53.230;10.390;2023-12-20T02:14:55;11.07;;;2.60;;
76626;SDS011;65519;53.230;10.390;2023-12-20T02:17:21;13.30;;;3.05;;
76626;SDS011;65519;53.230;10.390;2023-12-20T02:19:47;12.57;;;2.55;;
76626;SDS011;65519;53.230;10.390;2023-12-20T02:22:12;9.93;;;3.33;;
76626;SDS011;65519;53.230;10.390;2023-12-20T02:24:38;7.78;;;2.90;;
76626;SDS011;65519;53.230;10.390;2023-12-20T02:27:04;11.02;;;3.10;;
76626;SDS011;65519;53.230;10.390;2023-12-20T02:29:31;13.32;;;3.55;;
76626;SDS011;65519;53.230;10.390;2023-12-20T02:31:57;15.07;;;4.07;;
76626;SDS011;65519;53.230;10.390;2023-12-20T02:34:23;9.00;;;4.13;;
76626;SDS011;65519;53.230;10.390;2023-12-20T02:36:48;12.00;;;3.92;;
76626;SDS011;65519;53.230;10.390;2023-12-20T02:39:14;10.77;;;3.47;;
76626;SDS011;65519;53.230;10.390;2023-12-20T02:41:39;12.05;;;3.28;;
76626;SDS011;65519;53.230;10.390;2023-12-20T02:44:04;12.68;;;3.50;;
76626;SDS011;65519;53.230;10.390;2023-12-20T02:46:30;9.55;;;4.03;;
76626;SDS011;65519;53.230;10.390;2023-12-20T02:48:55;12.95;;;3.83;;
76626;SDS011;65519;53.230;10.390;2023-12-20T02:51:21;9.52;;;3.72;;
76626;SDS011;65519;53.230;10.390;2023-12-20T02:53:46;8.95;;;2.53;;
76626;SDS011;65519;53.230;10.390;2023-12-20T02:56:11;12.45;;;3.83;;
76626;SDS011;65519;53.230;10.390;2023-12-20T02:58:37;8.95;;;3.50;;
76626;SDS011;65519;53.230;10.390;2023-12-20T03:01:02;13.82;;;4.50;;
76626;SDS011;65519;53.230;10.390;2023-12-20T03:03:28;15.02;;;3.92;;
76626;SDS011;65519;53.230;10.390;2023-12-20T03:05:53;9.32;;;3.50;;
76626;SDS011;65519;53.230;10.390;2023-12-20T03:08:19;11.38;;;3.55;;
76626;SDS011;65519;53.230;10.390;2023-12-20T03:10:44;16.95;;;4.22;;
76626;SDS011;65519;53.230;10.390;2023-12-20T03:13:10;18.63;;;4.40;;
76626;SDS011;65519;53.230;10.390;2023-12-20T03:15:35;9.23;;;3.08;;
76626;SDS011;65519;53.230;10.390;2023-12-20T03:18:01;15.82;;;3.83;;
76626;SDS011;65519;53.230;10.390;2023-12-20T03:20:26;10.60;;;3.20;;
76626;SDS011;65519;53.230;10.390;2023-12-20T03:22:52;7.00;;;3.40;;
76626;SDS011;65519;53.230;10.390;2023-12-20T03:25:17;9.38;;;3.08;;
76626;SDS011;65519;53.230;10.390;2023-12-20T03:27:43;11.23;;;3.30;;
76626;SDS011;65519;53.230;10.390;2023-12-20T03:30:08;11.57;;;2.85;;
76626;SDS011;65519;53.230;10.390;2023-12-20T03:32:34;13.10;;;2.90;;
76626;SDS011;65519;53.230;10.390;2023-12-20T03:34:59;10.77;;;3.55;;
76626;SDS011;65519;53.230;10.390;2023-12-20T03:37:25;16.58;;;4.20;;
76626;SDS011;65519;53.230;10.390;2023-12-20T03:39:50;6.40;;;2.95;;
76626;SDS011;65519;53.230;10.390;2023-12-20T03:42:16;10.30;;;3.38;;
76626;SDS011;65519;53.230;10.390;2023-12-20T03:44:41;13.98;;;3.22;;
76626;SDS011;65519;53.230;10.390;2023-12-20T03:47:07;15.32;;;3.65;;
76626;SDS011;65519;53.230;10.390;2023-12-20T03:49:33;9.10;;;3.17;;
76626;SDS011;65519;53.230;10.390;2023-12-20T03:51:58;12.68;;;3.35;;
76626;SDS011;65519;53.230;10.390;2023-12-20T03:54:24;13.52;;;3.92;;
76626;SDS011;65519;53.230;10.390;2023-12-20T03:56:49;9.73;;;3.00;;
76626;SDS011;65519;53.230;10.390;2023-12-20T03:59:15;11.02;;;2.85;;
76626;SDS011;65519;53.230;10.390;2023-12-20T04:01:43;11.73;;;3.88;;
76626;SDS011;65519;53.230;10.390;2023-12-20T04:04:12;12.70;;;3.47;;
76626;SDS011;65519;53.230;10.390;2023-12-20T04:06:38;7.85;;;2.70;;
76626;SDS011;65519;53.230;10.390;2023-12-20T04:09:03;12.73;;;2.83;;
76626;SDS011;65519;53.230;10.390;2023-12-20T04:11:29;15.05;;;3.13;;
76626;SDS011;65519;53.230;10.390;2023-12-20T04:13:55;10.73;;;3.38;;
76626;SDS011;65519;53.230;10.390;2023-12-20T04:16:20;7.07;;;2.83;;
76626;SDS011;65519;53.230;10.390;2023-12-20T04:18:46;6.80;;;2.67;;
76626;SDS011;65519;53.230;10.390;2023-12-20T04:21:11;10.50;;;2.65;;
76626;SDS011;65519;53.230;10.390;2023-12-20T04:23:37;8.98;;;2.90;;
76626;SDS011;65519;53.230;10.390;2023-12-20T04:26:02;12.05;;;3.08;;
76626;SDS011;65519;53.230;10.390;2023-12-20T04:28:28;12.05;;;3.35;;
76626;SDS011;65519;53.230;10.390;2023-12-20T04:30:55;12.50;;;3.15;;
76626;SDS011;65519;53.230;10.390;2023-12-20T04:33:21;12.73;;;2.85;;
76626;SDS011;65519;53.230;10.390;2023-12-20T04:35:47;9.18;;;2.78;;
76626;SDS011;65519;53.230;10.390;2023-12-20T04:38:12;11.63;;;3.05;;
76626;SDS011;65519;53.230;10.390;2023-12-20T04:40:38;6.25;;;2.35;;
76626;SDS011;65519;53.230;10.390;2023-12-20T04:43:05;6.30;;;1.80;;
76626;SDS011;65519;53.230;10.390;2023-12-20T04:45:30;12.18;;;2.90;;
76626;SDS011;65519;53.230;10.390;2023-12-20T04:47:56;9.13;;;3.08;;
76626;SDS011;65519;53.230;10.390;2023-12-20T04:50:21;9.63;;;2.80;;
76626;SDS011;65519;53.230;10.390;2023-12-20T04:52:47;8.57;;;2.58;;
76626;SDS011;65519;53.230;10.390;2023-12-20T04:55:12;11.45;;;3.60;;
76626;SDS011;65519;53.230;10.390;2023-12-20T04:57:38;14.70;;;3.33;;
76626;SDS011;65519;53.230;10.390;2023-12-20T05:00:04;12.10;;;2.90;;
76626;SDS011;65519;53.230;10.390;2023-12-20T05:02:30;10.80;;;4.15;;
76626;SDS011;65519;53.230;10.390;2023-12-20T05:04:56;12.00;;;2.80;;
76626;SDS011;65519;53.230;10.390;2023-12-20T05:07:21;8.98;;;3.40;;
76626;SDS011;65519;53.230;10.390;2023-12-20T05:09:47;14.43;;;2.65;;
76626;SDS011;65519;53.230;10.390;2023-12-20T05:12:12;10.15;;;3.45;;
76626;SDS011;65519;53.230;10.390;2023-12-20T05:14:38;10.38;;;3.17;;
76626;SDS011;65519;53.230;10.390;2023-12-20T05:17:03;7.20;;;2.97;;
76626;SDS011;65519;53.230;10.390;2023-12-20T05:19:29;7.90;;;3.00;;
76626;SDS011;65519;53.230;10.390;2023-12-20T05:21:54;8.05;;;2.95;;
76626;SDS011;65519;53.230;10.390;2023-12-20T05:24:19;8.35;;;3.30;;
76626;SDS011;65519;53.230;10.390;2023-12-20T05:26:45;17.77;;;3.75;;
76626;SDS011;65519;53.230;10.390;2023-12-20T05:29:10;11.07;;;2.97;;
76626;SDS011;65519;53.230;10.390;2023-12-20T05:31:36;15.93;;;3.92;;
76626;SDS011;65519;53.230;10.390;2023-12-20T05:34:01;10.27;;;2.88;;
76626;SDS011;65519;53.230;10.390;2023-12-20T05:36:27;11.55;;;3.08;;
76626;SDS011;65519;53.230;10.390;2023-12-20T05:38:52;10.55;;;3.70;;
76626;SDS011;65519;53.230;10.390;2023-12-20T05:41:18;8.80;;;2.72;;
76626;SDS011;65519;53.230;10.390;2023-12-20T05:43:43;8.07;;;2.88;;
76626;SDS011;65519;53.230;10.390;2023-12-20T05:46:12;11.73;;;3.30;;
76626;SDS011;65519;53.230;10.390;2023-12-20T05:48:38;6.53;;;3.17;;
76626;SDS011;65519;53.230;10.390;2023-12-20T05:51:03;9.60;;;3.33;;
76626;SDS011;65519;53.230;10.390;2023-12-20T05:53:29;12.65;;;4.30;;
76626;SDS011;65519;53.230;10.390;2023-12-20T05:55:54;12.68;;;3.30;;
76626;SDS011;65519;53.230;10.390;2023-12-20T05:58:20;16.55;;;5.40;;
76626;SDS011;65519;53.230;10.390;2023-12-20T06:00:45;12.55;;;3.45;;
76626;SDS011;65519;53.230;10.390;2023-12-20T06:03:11;12.50;;;3.83;;
76626;SDS011;65519;53.230;10.390;2023-12-20T06:05:36;11.48;;;3.28;;
76626;SDS011;65519;53.230;10.390;2023-12-20T06:08:02;13.63;;;3.08;;
76626;SDS011;65519;53.230;10.390;2023-12-20T06:10:28;11.18;;;4.22;;
76626;SDS011;65519;53.230;10.390;2023-12-20T06:12:54;5.68;;;2.33;;
76626;SDS011;65519;53.230;10.390;2023-12-20T06:15:20;9.90;;;3.78;;
76626;SDS011;65519;53.230;10.390;2023-12-20T06:17:45;12.18;;;3.35;;
76626;SDS011;65519;53.230;10.390;2023-12-20T06:20:12;14.45;;;4.20;;
76626;SDS011;65519;53.230;10.390;2023-12-20T06:22:38;15.60;;;4.10;;
76626;SDS011;65519;53.230;10.390;2023-12-20T06:25:04;12.70;;;4.43;;
76626;SDS011;65519;53.230;10.390;2023-12-20T06:27:30;11.10;;;4.05;;
76626;SDS011;65519;53.230;10.390;2023-12-20T06:29:57;9.20;;;3.38;;
76626;SDS011;65519;53.230;10.390;2023-12-20T06:32:22;11.65;;;3.92;;
76626;SDS011;65519;53.230;10.390;2023-12-20T06:34:48;14.73;;;3.80;;
76626;SDS011;65519;53.230;10.390;2023-12-20T06:37:14;12.77;;;4.63;;
76626;SDS011;65519;53.230;10.390;2023-12-20T06:39:40;21.27;;;4.18;;
76626;SDS011;65519;53.230;10.390;2023-12-20T06:42:06;16.77;;;4.47;;
76626;SDS011;65519;53.230;10.390;2023-12-20T06:44:31;18.45;;;3.75;;
76626;SDS011;65519;53.230;10.390;2023-12-20T06:46:57;11.07;;;3.40;;
76626;SDS011;65519;53.230;10.390;2023-12-20T06:49:23;17.27;;;5.40;;
76626;SDS011;65519;53.230;10.390;2023-12-20T06:51:48;8.95;;;3.47;;
76626;SDS011;65519;53.230;10.390;2023-12-20T06:54:14;13.88;;;4.85;;
76626;SDS011;65519;53.230;10.390;2023-12-20T06:56:39;10.68;;;3.80;;
76626;SDS011;65519;53.230;10.390;2023-12-20T06:59:06;9.77;;;3.65;;
76626;SDS011;65519;53.230;10.390;2023-12-20T07:01:31;7.35;;;2.67;;
76626;SDS011;65519;53.230;10.390;2023-12-20T07:03:57;12.07;;;3.67;;
76626;SDS011;65519;53.230;10.390;2023-12-20T07:06:22;15.48;;;3.63;;
76626;SDS011;65519;53.230;10.390;2023-12-20T07:08:48;8.65;;;1.92;;
76626;SDS011;65519;53.230;10.390;2023-12-20T07:11:14;10.25;;;3.10;;
76626;SDS011;65519;53.230;10.390;2023-12-20T07:13:39;9.05;;;2.72;;
76626;SDS011;65519;53.230;10.390;2023-12-20T07:16:05;13.82;;;4.55;;
76626;SDS011;65519;53.230;10.390;2023-12-20T07:18:31;9.70;;;2.60;;
76626;SDS011;65519;53.230;10.390;2023-12-20T07:20:56;15.75;;;3.58;;
76626;SDS011;65519;53.230;10.390;2023-12-20T07:23:21;11.85;;;3.88;;
76626;SDS011;65519;53.230;10.390;2023-12-20T07:25:47;14.43;;;3.67;;
76626;SDS011;65519;53.230;10.390;2023-12-20T07:28:12;11.02;;;3.67;;
76626;SDS011;65519;53.230;10.390;2023-12-20T07:30:38;11.77;;;3.55;;
76626;SDS011;65519;53.230;10.390;2023-12-20T07:33:04;12.55;;;4.10;;
76626;SDS011;65519;53.230;10.390;2023-12-20T07:35:30;36.90;;;13.88;;
76626;SDS011;65519;53.230;10.390;2023-12-20T07:37:55;27.42;;;11.07;;
76626;SDS011;65519;53.230;10.390;2023-12-20T07:40:21;12.18;;;3.65;;
76626;SDS011;65519;53.230;10.390;2023-12-20T07:42:46;10.73;;;2.72;;
76626;SDS011;65519;53.230;10.390;2023-12-20T07:45:11;10.65;;;3.20;;
76626;SDS011;65519;53.230;10.390;2023-12-20T07:47:37;11.48;;;3.92;;
76626;SDS011;65519;53.230;10.390;2023-12-20T07:50:02;9.48;;;2.80;;
76626;SDS011;65519;53.230;10.390;2023-12-20T07:52:29;14.68;;;3.88;;
76626;SDS011;65519;53.230;10.390;2023-12-20T07:54:54;10.63;;;3.20;;
76626;SDS011;65519;53.230;10.390;2023-12-20T07:57:20;15.05;;;3.10;;
76626;SDS011;65519;53.230;10.390;2023-12-20T07:59:46;5.72;;;1.83;;
76626;SDS011;65519;53.230;10.390;2023-12-20T08:02:11;8.48;;;3.05;;
76626;SDS011;65519;53.230;10.390;2023-12-20T08:04:37;7.25;;;2.58;;
76626;SDS011;65519;53.230;10.390;2023-12-20T08:07:03;11.05;;;3.15;;
76626;SDS011;65519;53.230;10.390;2023-12-20T08:09:28;14.65;;;3.30;;
76626;SDS011;65519;53.230;10.390;2023-12-20T08:11:54;11.10;;;2.47;;
76626;SDS011;65519;53.230;10.390;2023-12-20T08:14:20;12.73;;;3.72;;
76626;SDS011;65519;53.230;10.390;2023-12-20T08:16:46;17.60;;;3.65;;
76626;SDS011;65519;53.230;10.390;2023-12-20T08:19:11;25.20;;;8.50;;
76626;SDS011;65519;53.230;10.390;2023-12-20T08:21:37;19.27;;;6.50;;
76626;SDS011;65519;53.230;10.390;2023-12-20T08:24:02;27.90;;;9.50;;
76626;SDS011;65519;53.230;10.390;2023-12-20T08:26:28;24.55;;;7.82;;
76626;SDS011;65519;53.230;10.390;2023-12-20T08:28:53;14.40;;;3.85;;
76626;SDS011;65519;53.230;10.390;2023-12-20T08:31:19;14.55;;;4.15;;
76626;SDS011;65519;53.230;10.390;2023-12-20T08:33:46;10.70;;;3.20;;
76626;SDS011;65519;53.230;10.390;2023-12-20T08:36:12;19.25;;;4.20;;
76626;SDS011;65519;53.230;10.390;2023-12-20T08:38:38;15.38;;;3.45;;
76626;SDS011;65519;53.230;10.390;2023-12-20T08:41:04;10.30;;;3.40;;
76626;SDS011;65519;53.230;10.390;2023-12-20T08:43:33;16.73;;;3.85;;
76626;SDS011;65519;53.230;10.390;2023-12-20T08:46:00;14.45;;;3.17;;
76626;SDS011;65519;53.230;10.390;2023-12-20T08:48:26;47.13;;;16.27;;
76626;SDS011;65519;53.230;10.390;2023-12-20T08:50:51;45.15;;;16.13;;
76626;SDS011;65519;53.230;10.390;2023-12-20T08:53:17;32.08;;;10.35;;
76626;SDS011;65519;53.230;10.390;2023-12-20T08:55:44;20.48;;;4.15;;
76626;SDS011;65519;53.230;10.390;2023-12-20T08:58:09;13.85;;;3.80;;
76626;SDS011;65519;53.230;10.390;2023-12-20T09:00:35;11.45;;;2.88;;
76626;SDS011;65519;53.230;10.390;2023-12-20T09:03:01;9.68;;;3.25;;
76626;SDS011;65519;53.230;10.390;2023-12-20T09:05:27;11.57;;;2.72;;
76626;SDS011;65519;53.230;10.390;2023-12-20T09:07:53;6.95;;;3.03;;
76626;SDS011;65519;53.230;10.390;2023-12-20T09:10:19;14.57;;;4.07;;
76626;SDS011;65519;53.230;10.390;2023-12-20T09:12:50;14.18;;;4.22;;
76626;SDS011;65519;53.230;10.390;2023-12-20T09:15:21;15.50;;;3.80;;
76626;SDS011;65519;53.230;10.390;2023-12-20T09:17:48;14.57;;;3.15;;
76626;SDS011;65519;53.230;10.390;2023-12-20T09:20:13;17.25;;;3.72;;
76626;SDS011;65519;53.230;10.390;2023-12-20T09:22:39;5.70;;;2.10;;
76626;SDS011;65519;53.230;10.390;2023-12-20T09:25:05;13.55;;;3.65;;
76626;SDS011;65519;53.230;10.390;2023-12-20T09:27:30;9.40;;;3.05;;
76626;SDS011;65519;53.230;10.390;2023-12-20T09:29:56;15.77;;;3.80;;
76626;SDS011;65519;53.230;10.390;2023-12-20T09:32:21;13.40;;;4.63;;
76626;SDS011;65519;53.230;10.390;2023-12-20T09:34:47;16.73;;;5.95;;
76626;SDS011;65519;53.230;10.390;2023-12-20T09:37:13;12.27;;;4.40;;
76626;SDS011;65519;53.230;10.390;2023-12-20T09:39:38;9.38;;;3.58;;
76626;SDS011;65519;53.230;10.390;2023-12-20T09:42:05;12.00;;;3.28;;
76626;SDS011;65519;53.230;10.390;2023-12-20T09:44:31;15.63;;;4.18;;
76626;SDS011;65519;53.230;10.390;2023-12-20T09:46:59;12.10;;;3.53;;
76626;SDS011;65519;53.230;10.390;2023-12-20T09:49:27;18.63;;;3.80;;
76626;SDS011;65519;53.230;10.390;2023-12-20T09:51:53;18.60;;;3.72;;
76626;SDS011;65519;53.230;10.390;2023-12-20T09:54:20;13.48;;;4.22;;
76626;SDS011;65519;53.230;10.390;2023-12-20T09:56:46;9.20;;;3.25;;
76626;SDS011;65519;53.230;10.390;2023-12-20T09:59:12;11.60;;;3.20;;
76626;SDS011;65519;53.230;10.390;2023-12-20T10:01:41;13.65;;;3.38;;
76626;SDS011;65519;53.230;10.390;2023-12-20T10:04:07;10.48;;;3.10;;
76626;SDS011;65519;53.230;10.390;2023-12-20T10:06:35;11.77;;;4.82;;
76626;SDS011;65519;53.230;10.390;2023-12-20T10:09:01;15.35;;;5.00;;
76626;SDS011;65519;53.230;10.390;2023-12-20T10:11:27;9.23;;;3.22;;
76626;SDS011;65519;53.230;10.390;2023-12-20T10:13:58;7.10;;;2.20;;
76626;SDS011;65519;53.230;10.390;2023-12-20T10:16:24;7.43;;;1.52;;
76626;SDS011;65519;53.230;10.390;2023-12-20T10:18:50;5.18;;;1.60;;
76626;SDS011;65519;53.230;10.390;2023-12-20T10:21:18;3.78;;;1.58;;
76626;SDS011;65519;53.230;10.390;2023-12-20T10:23:43;4.72;;;1.25;;
76626;SDS011;65519;53.230;10.390;2023-12-20T10:26:09;6.68;;;2.75;;
76626;SDS011;65519;53.230;10.390;2023-12-20T10:28:36;3.75;;;1.77;;
76626;SDS011;65519;53.230;10.390;2023-12-20T10:31:02;2.38;;;1.55;;
76626;SDS011;65519;53.230;10.390;2023-12-20T10:33:28;2.60;;;1.08;;
76626;SDS011;65519;53.230;10.390;2023-12-20T10:35:54;7.60;;;3.13;;
76626;SDS011;65519;53.230;10.390;2023-12-20T10:38:21;9.07;;;2.78;;
76626;SDS011;65519;53.230;10.390;2023-12-20T10:40:47;3.03;;;1.27;;
76626;SDS011;65519;53.230;10.390;2023-12-20T10:43:13;3.80;;;1.30;;
76626;SDS011;65519;53.230;10.390;2023-12-20T10:45:41;1.80;;;0.65;;
76626;SDS011;65519;53.230;10.390;2023-12-20T10:48:09;2.83;;;1.00;;
76626;SDS011;65519;53.230;10.390;2023-12-20T10:50:36;6.03;;;1.10;;
76626;SDS011;65519;53.230;10.390;2023-12-20T10:53:03;33.05;;;15.55;;
76626;SDS011;65519;53.230;10.390;2023-12-20T10:55:29;53.28;;;19.55;;
76626;SDS011;65519;53.230;10.390;2023-12-20T10:58:07;7.72;;;3.70;;
76626;SDS011;65519;53.230;10.390;2023-12-20T11:00:35;3.95;;;1.15;;
76626;SDS011;65519;53.230;10.390;2023-12-20T11:03:06;2.63;;;0.77;;
76626;SDS011;65519;53.230;10.390;2023-12-20T11:05:49;3.40;;;0.90;;
76626;SDS011;65519;53.230;10.390;2023-12-20T11:11:14;2.63;;;0.95;;
76626;SDS011;65519;53.230;10.390;2023-12-20T11:14:04;2.88;;;1.05;;
76626;SDS011;65519;53.230;10.390;2023-12-20T11:16:36;2.08;;;0.88;;
76626;SDS011;65519;53.230;10.390;2023-12-20T11:19:05;3.33;;;1.13;;
76626;SDS011;65519;53.230;10.390;2023-12-20T11:21:31;3.92;;;1.48;;
76626;SDS011;65519;53.230;10.390;2023-12-20T11:23:56;3.05;;;1.02;;
76626;SDS011;65519;53.230;10.390;2023-12-20T11:26:22;2.65;;;1.00;;
76626;SDS011;65519;53.230;10.390;2023-12-20T11:28:51;4.05;;;1.25;;
76626;SDS011;65519;53.230;10.390;2023-12-20T11:31:17;5.10;;;0.68;;
76626;SDS011;65519;53.230;10.390;2023-12-20T11:33:42;7.75;;;1.20;;
76626;SDS011;65519;53.230;10.390;2023-12-20T11:36:12;3.30;;;0.80;;
76626;SDS011;65519;53.230;10.390;2023-12-20T11:38:49;6.50;;;1.20;;
76626;SDS011;65519;53.230;10.390;2023-12-20T11:41:22;1.30;;;0.45;;
76626;SDS011;65519;53.230;10.390;2023-12-20T11:43:48;3.88;;;1.10;;
76626;SDS011;65519;53.230;10.390;2023-12-20T11:46:14;8.20;;;1.17;;
76626;SDS011;65519;53.230;10.390;2023-12-20T11:48:39;5.13;;;1.20;;
76626;SDS011;65519;53.230;10.390;2023-12-20T11:51:09;4.28;;;1.05;;
76626;SDS011;65519;53.230;10.390;2023-12-20T11:53:35;4.00;;;1.40;;
76626;SDS011;65519;53.230;10.390;2023-12-20T11:56:02;2.97;;;1.23;;
76626;SDS011;65519;53.230;10.390;2023-12-20T11:58:28;6.90;;;1.17;;
76626;SDS011;65519;53.230;10.390;2023-12-20T12:00:54;6.38;;;1.20;;
76626;SDS011;65519;53.230;10.390;2023-12-20T12:03:20;3.85;;;1.10;;
76626;SDS011;65519;53.230;10.390;2023-12-20T12:05:47;3.20;;;1.35;;
76626;SDS011;65519;53.230;10.390;2023-12-20T12:08:12;5.55;;;1.50;;
76626;SDS011;65519;53.230;10.390;2023-12-20T12:10:38;6.80;;;1.48;;
76626;SDS011;65519;53.230;10.390;2023-12-20T12:13:03;9.57;;;1.73;;
76626;SDS011;65519;53.230;10.390;2023-12-20T12:15:29;3.17;;;0.93;;
76626;SDS011;65519;53.230;10.390;2023-12-20T12:17:55;6.82;;;1.08;;
76626;SDS011;65519;53.230;10.390;2023-12-20T12:20:21;6.05;;;1.25;;
76626;SDS011;65519;53.230;10.390;2023-12-20T12:23:08;3.88;;;1.10;;
76626;SDS011;65519;53.230;10.390;2023-12-20T12:25:36;8.10;;;1.75;;
76626;SDS011;65519;53.230;10.390;2023-12-20T12:28:05;5.95;;;1.70;;
76626;SDS011;65519;53.230;10.390;2023-12-20T12:30:30;6.18;;;1.05;;
76626;SDS011;65519;53.230;10.390;2023-12-20T12:32:56;4.68;;;1.63;;
76626;SDS011;65519;53.230;10.390;2023-12-20T12:35:21;9.25;;;2.13;;
76626;SDS011;65519;53.230;10.390;2023-12-20T12:37:47;6.93;;;1.83;;
76626;SDS011;65519;53.230;10.390;2023-12-20T12:42:39;5.57;;;1.70;;
76626;SDS011;65519;53.230;10.390;2023-12-20T12:45:07;6.53;;;1.60;;
76626;SDS011;65519;53.230;10.390;2023-12-20T12:47:36;8.50;;;1.98;;
76626;SDS011;65519;53.230;10.390;2023-12-20T12:50:01;7.47;;;2.38;;
76626;SDS011;65519;53.230;10.390;2023-12-20T12:52:27;12.43;;;1.90;;
76626;SDS011;65519;53.230;10.390;2023-12-20T12:54:52;6.18;;;1.85;;
76626;SDS011;65519;53.230;10.390;2023-12-20T12:57:18;5.53;;;1.73;;
76626;SDS011;65519;53.230;10.390;2023-12-20T12:59:44;10.80;;;1.60;;
76626;SDS011;65519;53.230;10.390;2023-12-20T13:02:11;6.38;;;1.58;;
76626;SDS011;65519;53.230;10.390;2023-12-20T13:04:41;4.65;;;1.25;;
76626;SDS011;65519;53.230;10.390;2023-12-20T13:07:07;7.25;;;1.48;;
76626;SDS011;65519;53.230;10.390;2023-12-20T13:09:35;5.90;;;1.63;;
76626;SDS011;65519;53.230;10.390;2023-12-20T13:12:01;2.85;;;1.23;;
76626;SDS011;65519;53.230;10.390;2023-12-20T13:14:29;7.28;;;1.70;;
76626;SDS011;65519;53.230;10.390;2023-12-20T13:16:55;5.95;;;1.30;;
76626;SDS011;65519;53.230;10.390;2023-12-20T13:19:21;9.23;;;1.60;;
76626;SDS011;65519;53.230;10.390;2023-12-20T13:21:46;4.75;;;1.30;;
76626;SDS011;65519;53.230;10.390;2023-12-20T13:24:12;2.30;;;1.20;;
76626;SDS011;65519;53.230;10.390;2023-12-20T13:26:37;6.18;;;2.25;;
76626;SDS011;65519;53.230;10.390;2023-12-20T13:29:03;5.15;;;1.48;;
76626;SDS011;65519;53.230;10.390;2023-12-20T13:31:28;3.67;;;1.00;;
76626;SDS011;65519;53.230;10.390;2023-12-20T13:33:54;6.50;;;1.60;;
76626;SDS011;65519;53.230;10.390;2023-12-20T13:36:19;4.90;;;1.85;;
76626;SDS011;65519;53.230;10.390;2023-12-20T13:38:45;4.53;;;1.40;;
76626;SDS011;65519;53.230;10.390;2023-12-20T13:41:10;8.23;;;1.73;;
76626;SDS011;65519;53.230;10.390;2023-12-20T13:43:35;5.28;;;1.75;;
76626;SDS011;65519;53.230;10.390;2023-12-20T13:46:01;10.88;;;2.03;;
76626;SDS011;65519;53.230;10.390;2023-12-20T13:48:26;7.25;;;2.08;;
76626;SDS011;65519;53.230;10.390;2023-12-20T13:50:52;7.05;;;2.25;;
76626;SDS011;65519;53.230;10.390;2023-12-20T13:53:17;10.63;;;2.90;;
76626;SDS011;65519;53.230;10.390;2023-12-20T13:55:44;11.95;;;2.17;;
76626;SDS011;65519;53.230;10.390;2023-12-20T13:58:09;8.25;;;2.10;;
76626;SDS011;65519;53.230;10.390;2023-12-20T14:00:37;7.75;;;2.08;;
76626;SDS011;65519;53.230;10.390;2023-12-20T14:03:05;5.22;;;2.10;;
76626;SDS011;65519;53.230;10.390;2023-12-20T14:07:56;9.30;;;2.50;;
76626;SDS011;65519;53.230;10.390;2023-12-20T14:10:25;11.38;;;2.70;;
76626;SDS011;65519;53.230;10.390;2023-12-20T14:15:19;12.18;;;2.45;;
76626;SDS011;65519;53.230;10.390;2023-12-20T14:17:45;17.13;;;3.83;;
76626;SDS011;65519;53.230;10.390;2023-12-20T14:20:11;10.98;;;3.95;;
76626;SDS011;65519;53.230;10.390;2023-12-20T14:22:39;10.57;;;2.78;;
76626;SDS011;65519;53.230;10.390;2023-12-20T14:25:12;8.90;;;2.47;;
76626;SDS011;65519;53.230;10.390;2023-12-20T14:27:39;32.42;;;11.07;;
76626;SDS011;65519;53.230;10.390;2023-12-20T14:30:05;10.43;;;2.92;;
76626;SDS011;65519;53.230;10.390;2023-12-20T14:32:32;18.52;;;5.55;;